Black River, MI

7:52 PM EST on December 08, 2016 (GMT -0500)
| | Change Station

Elev -9999 ft 0.00 °N, 0.00 °E | Updated 0 second ago

Overcast
Overcast
65 °F
Feels Like 65 °F
N
4
Wind Variable Wind from SW
Gusts mph

Today
High -- | Low -- °F
--% Chance of Precip.
Yesterday
High -- | Low -- °F
Precip. -- in
Pressure 30.09 in
Visibility 6.0 miles
Clouds Mostly Cloudy 1700 ft
Mostly Cloudy 2700 ft
Overcast 3200 ft
Dew Point 60 °F
Humidity 83%
Rainfall --
Snow Depth Not available.
7:57 AM 4:50 PM
Waxing Gibbous, 68% visible
SPECI KAPN 090042Z AUTO 31007KT 6SM -SN BR BKN017 BKN027 OVC032 M03/M06 A3009 RMK AO2 VIS 2 1/2 RY 19 P0002 T10331056
Pressure 30.09 in
Visibility 6.0 miles
Clouds Mostly Cloudy 1700 ft
Mostly Cloudy 2700 ft
Overcast 3200 ft
Dew Point 60 °F
Humidity 83%
Rainfall --
Snow Depth Not available.
7:57 AM 4:50 PM
Waxing Gibbous, 68% visible
SPECI KAPN 090042Z AUTO 31007KT 6SM -SN BR BKN017 BKN027 OVC032 M03/M06 A3009 RMK AO2 VIS 2 1/2 RY 19 P0002 T10331056

10-Day Weather Forecast

Almanac

Astronomy

Dec. 08, 2016 Rise Set
Actual Time
Civil Twilight
Nautical Twilight
Astronomical Twilight
Moon
Length of Visible Light
Length of Day
Tomorrow will be .
, % of the Moon is Illuminated

Today's Extremes

State Highs State Lows

Community

WunderPhotos

Upload Photos

1,956,277 photos uploaded!

WunderBlog® & News

Nearby

Air Quality

  Air Quality AQ Index Pollutant
Not available.

Snow Depth

Station Depth Elevation

Earthquake Activity

City Distance Mag. Time & Date
Minimum magnitude displayed is 2.5.

Coastal Water Temperatures

Place Temperature

Stations

Nearby Weather Stations

Station Location Temp. Windchill Dew Point Humidity Wind Precip. Elev Updated Type
                   

Watches & Warnings

There are currently no watches in effect.